sensor_id;sensor_type;location;lat;lon;timestamp;P1;durP1;ratioP1;P2;durP2;ratioP2
66127;SDS011;52925;52.436;-1.952;2024-02-21T05:23:38;3.56;;;1.27;;
66127;SDS011;52925;52.436;-1.952;2024-02-21T05:25:00;3.03;;;1.20;;
66127;SDS011;52925;52.436;-1.952;2024-02-21T05:26:20;4.97;;;1.73;;
66127;SDS011;52925;52.436;-1.952;2024-02-21T05:27:42;5.00;;;1.40;;
66127;SDS011;52925;52.436;-1.952;2024-02-21T05:29:03;4.00;;;1.40;;
66127;SDS011;52925;52.436;-1.952;2024-02-21T05:30:24;3.37;;;0.97;;
66127;SDS011;52925;52.436;-1.952;2024-02-21T05:33:23;5.93;;;1.47;;
66127;SDS011;52925;52.436;-1.952;2024-02-21T05:34:44;3.00;;;1.27;;
66127;SDS011;52925;52.436;-1.952;2024-02-21T05:36:08;3.83;;;1.30;;
66127;SDS011;52925;52.436;-1.952;2024-02-21T05:37:28;2.70;;;1.27;;
66127;SDS011;52925;52.436;-1.952;2024-02-21T05:38:51;2.67;;;1.00;;
66127;SDS011;52925;52.436;-1.952;2024-02-21T05:40:11;2.80;;;1.30;;
66127;SDS011;52925;52.436;-1.952;2024-02-21T05:41:34;5.80;;;1.57;;
66127;SDS011;52925;52.436;-1.952;2024-02-21T05:42:54;2.27;;;1.00;;
66127;SDS011;52925;52.436;-1.952;2024-02-21T05:44:16;2.87;;;1.27;;
66127;SDS011;52925;52.436;-1.952;2024-02-21T05:45:37;2.70;;;1.03;;
66127;SDS011;52925;52.436;-1.952;2024-02-21T05:46:58;3.10;;;1.40;;
66127;SDS011;52925;52.436;-1.952;2024-02-21T05:48:19;3.40;;;1.00;;
66127;SDS011;52925;52.436;-1.952;2024-02-21T05:49:40;3.63;;;1.30;;
66127;SDS011;52925;52.436;-1.952;2024-02-21T05:51:01;2.87;;;1.30;;
66127;SDS011;52925;52.436;-1.952;2024-02-21T05:52:23;2.43;;;1.10;;
66127;SDS011;52925;52.436;-1.952;2024-02-21T05:53:43;2.60;;;1.10;;
66127;SDS011;52925;52.436;-1.952;2024-02-21T05:55:07;3.33;;;1.47;;
66127;SDS011;52925;52.436;-1.952;2024-02-21T05:56:28;3.63;;;1.30;;
66127;SDS011;52925;52.436;-1.952;2024-02-21T05:57:49;4.33;;;1.50;;
66127;SDS011;52925;52.436;-1.952;2024-02-21T05:59:12;3.10;;;1.17;;
66127;SDS011;52925;52.436;-1.952;2024-02-21T06:00:33;5.43;;;1.50;;
66127;SDS011;52925;52.436;-1.952;2024-02-21T06:01:56;2.53;;;1.13;;
66127;SDS011;52925;52.436;-1.952;2024-02-21T06:03:18;4.53;;;1.40;;
66127;SDS011;52925;52.436;-1.952;2024-02-21T06:04:39;3.10;;;1.57;;
66127;SDS011;52925;52.436;-1.952;2024-02-21T06:05:59;4.43;;;1.50;;
66127;SDS011;52925;52.436;-1.952;2024-02-21T06:07:21;4.03;;;1.40;;
66127;SDS011;52925;52.436;-1.952;2024-02-21T06:08:41;4.67;;;1.73;;
66127;SDS011;52925;52.436;-1.952;2024-02-21T06:10:03;3.47;;;1.30;;
66127;SDS011;52925;52.436;-1.952;2024-02-21T06:11:25;4.53;;;1.23;;
66127;SDS011;52925;52.436;-1.952;2024-02-21T06:12:46;2.97;;;1.20;;
66127;SDS011;52925;52.436;-1.952;2024-02-21T06:14:06;2.97;;;1.30;;
66127;SDS011;52925;52.436;-1.952;2024-02-21T06:15:27;4.37;;;1.50;;
66127;SDS011;52925;52.436;-1.952;2024-02-21T06:16:48;1.83;;;1.33;;
66127;SDS011;52925;52.436;-1.952;2024-02-21T06:18:09;4.57;;;1.77;;
66127;SDS011;52925;52.436;-1.952;2024-02-21T06:19:29;4.47;;;1.60;;
66127;SDS011;52925;52.436;-1.952;2024-02-21T06:20:50;4.07;;;1.70;;
66127;SDS011;52925;52.436;-1.952;2024-02-21T06:22:11;4.93;;;1.53;;
66127;SDS011;52925;52.436;-1.952;2024-02-21T06:23:32;5.83;;;1.80;;
66127;SDS011;52925;52.436;-1.952;2024-02-21T06:24:52;4.87;;;1.83;;
66127;SDS011;52925;52.436;-1.952;2024-02-21T06:26:14;2.77;;;1.20;;
66127;SDS011;52925;52.436;-1.952;2024-02-21T06:27:36;5.23;;;1.63;;
66127;SDS011;52925;52.436;-1.952;2024-02-21T06:28:57;3.80;;;1.23;;
66127;SDS011;52925;52.436;-1.952;2024-02-21T06:30:18;3.80;;;1.60;;
66127;SDS011;52925;52.436;-1.952;2024-02-21T06:31:40;3.33;;;1.43;;
66127;SDS011;52925;52.436;-1.952;2024-02-21T06:33:00;4.00;;;1.43;;
66127;SDS011;52925;52.436;-1.952;2024-02-21T06:34:22;3.73;;;1.53;;
66127;SDS011;52925;52.436;-1.952;2024-02-21T06:35:43;3.30;;;1.27;;
66127;SDS011;52925;52.436;-1.952;2024-02-21T06:37:06;2.87;;;1.30;;
66127;SDS011;52925;52.436;-1.952;2024-02-21T06:38:28;5.57;;;1.53;;
66127;SDS011;52925;52.436;-1.952;2024-02-21T06:39:49;4.77;;;1.50;;
66127;SDS011;52925;52.436;-1.952;2024-02-21T06:41:14;4.03;;;1.50;;
66127;SDS011;52925;52.436;-1.952;2024-02-21T06:42:39;3.30;;;1.53;;
66127;SDS011;52925;52.436;-1.952;2024-02-21T06:43:59;4.00;;;1.50;;
66127;SDS011;52925;52.436;-1.952;2024-02-21T06:45:20;4.60;;;1.60;;
66127;SDS011;52925;52.436;-1.952;2024-02-21T06:46:40;3.70;;;1.50;;
66127;SDS011;52925;52.436;-1.952;2024-02-21T06:48:02;5.60;;;1.73;;
66127;SDS011;52925;52.436;-1.952;2024-02-21T06:49:23;5.37;;;1.60;;
66127;SDS011;52925;52.436;-1.952;2024-02-21T06:50:44;3.93;;;1.70;;
66127;SDS011;52925;52.436;-1.952;2024-02-21T06:52:04;3.37;;;1.33;;
66127;SDS011;52925;52.436;-1.952;2024-02-21T06:53:27;3.30;;;1.47;;
66127;SDS011;52925;52.436;-1.952;2024-02-21T06:54:47;4.20;;;1.60;;
66127;SDS011;52925;52.436;-1.952;2024-02-21T06:56:08;4.27;;;1.60;;
66127;SDS011;52925;52.436;-1.952;2024-02-21T06:57:29;1.73;;;1.27;;
66127;SDS011;52925;52.436;-1.952;2024-02-21T06:58:53;2.10;;;1.30;;
66127;SDS011;52925;52.436;-1.952;2024-02-21T07:00:13;2.40;;;1.20;;
66127;SDS011;52925;52.436;-1.952;2024-02-21T07:01:35;4.10;;;1.20;;
66127;SDS011;52925;52.436;-1.952;2024-02-21T07:02:55;2.50;;;1.60;;
66127;SDS011;52925;52.436;-1.952;2024-02-21T07:04:17;3.33;;;1.50;;
66127;SDS011;52925;52.436;-1.952;2024-02-21T07:05:37;4.37;;;1.50;;
66127;SDS011;52925;52.436;-1.952;2024-02-21T07:06:58;4.43;;;1.40;;
66127;SDS011;52925;52.436;-1.952;2024-02-21T07:08:18;3.37;;;1.27;;
66127;SDS011;52925;52.436;-1.952;2024-02-21T07:09:41;6.40;;;1.50;;
66127;SDS011;52925;52.436;-1.952;2024-02-21T07:11:00;3.77;;;1.50;;
66127;SDS011;52925;52.436;-1.952;2024-02-21T07:12:21;3.67;;;1.20;;
66127;SDS011;52925;52.436;-1.952;2024-02-21T07:13:42;3.30;;;1.60;;
66127;SDS011;52925;52.436;-1.952;2024-02-21T07:15:05;3.63;;;1.40;;
66127;SDS011;52925;52.436;-1.952;2024-02-21T07:16:25;3.90;;;1.57;;
66127;SDS011;52925;52.436;-1.952;2024-02-21T16:38:44;1.00;;;0.33;;
66127;SDS011;52925;52.436;-1.952;2024-02-21T16:40:06;1.50;;;0.50;;
66127;SDS011;52925;52.436;-1.952;2024-02-21T16:41:27;0.37;;;0.33;;
66127;SDS011;52925;52.436;-1.952;2024-02-21T16:42:48;0.70;;;0.30;;
66127;SDS011;52925;52.436;-1.952;2024-02-21T16:44:08;0.77;;;0.30;;
66127;SDS011;52925;52.436;-1.952;2024-02-21T16:45:30;1.10;;;0.37;;
66127;SDS011;52925;52.436;-1.952;2024-02-21T16:46:50;1.70;;;0.37;;
66127;SDS011;52925;52.436;-1.952;2024-02-21T16:48:12;1.13;;;0.40;;
66127;SDS011;52925;52.436;-1.952;2024-02-21T16:49:33;2.20;;;0.40;;
66127;SDS011;52925;52.436;-1.952;2024-02-21T16:50:54;0.70;;;0.30;;
66127;SDS011;52925;52.436;-1.952;2024-02-21T16:52:14;0.90;;;0.40;;
66127;SDS011;52925;52.436;-1.952;2024-02-21T16:53:35;1.70;;;0.40;;
66127;SDS011;52925;52.436;-1.952;2024-02-21T16:54:57;0.70;;;0.40;;
66127;SDS011;52925;52.436;-1.952;2024-02-21T16:56:18;0.30;;;0.30;;
66127;SDS011;52925;52.436;-1.952;2024-02-21T16:57:39;2.20;;;0.40;;
66127;SDS011;52925;52.436;-1.952;2024-02-21T16:59:00;2.83;;;0.50;;
66127;SDS011;52925;52.436;-1.952;2024-02-21T17:00:20;0.87;;;0.47;;
66127;SDS011;52925;52.436;-1.952;2024-02-21T17:01:41;1.60;;;0.43;;
66127;SDS011;52925;52.436;-1.952;2024-02-21T17:03:03;1.30;;;0.70;;
66127;SDS011;52925;52.436;-1.952;2024-02-21T17:04:24;1.13;;;0.40;;
66127;SDS011;52925;52.436;-1.952;2024-02-21T17:05:45;2.03;;;0.57;;
66127;SDS011;52925;52.436;-1.952;2024-02-21T17:07:06;0.70;;;0.30;;
66127;SDS011;52925;52.436;-1.952;2024-02-21T17:08:26;0.70;;;0.47;;
66127;SDS011;52925;52.436;-1.952;2024-02-21T17:09:47;1.20;;;0.40;;
66127;SDS011;52925;52.436;-1.952;2024-02-21T17:11:08;1.57;;;0.50;;
66127;SDS011;52925;52.436;-1.952;2024-02-21T17:12:30;1.30;;;0.40;;
66127;SDS011;52925;52.436;-1.952;2024-02-21T17:13:50;0.43;;;0.30;;
66127;SDS011;52925;52.436;-1.952;2024-02-21T17:15:11;0.93;;;0.40;;
66127;SDS011;52925;52.436;-1.952;2024-02-21T17:16:33;1.37;;;0.40;;
66127;SDS011;52925;52.436;-1.952;2024-02-21T17:18:01;2.10;;;0.53;;
66127;SDS011;52925;52.436;-1.952;2024-02-21T17:19:22;2.50;;;0.50;;
66127;SDS011;52925;52.436;-1.952;2024-02-21T17:20:43;1.10;;;0.40;;
66127;SDS011;52925;52.436;-1.952;2024-02-21T17:22:02;2.07;;;0.50;;
66127;SDS011;52925;52.436;-1.952;2024-02-21T17:23:24;1.93;;;0.53;;
66127;SDS011;52925;52.436;-1.952;2024-02-21T17:24:44;3.47;;;0.60;;
66127;SDS011;52925;52.436;-1.952;2024-02-21T17:26:05;1.93;;;0.70;;
66127;SDS011;52925;52.436;-1.952;2024-02-21T17:27:26;2.80;;;0.50;;
66127;SDS011;52925;52.436;-1.952;2024-02-21T17:28:47;2.93;;;0.70;;
66127;SDS011;52925;52.436;-1.952;2024-02-21T17:30:07;4.77;;;0.60;;
66127;SDS011;52925;52.436;-1.952;2024-02-21T17:31:28;1.57;;;0.50;;
66127;SDS011;52925;52.436;-1.952;2024-02-21T17:32:48;2.97;;;0.67;;
66127;SDS011;52925;52.436;-1.952;2024-02-21T17:34:10;2.57;;;0.70;;
66127;SDS011;52925;52.436;-1.952;2024-02-21T17:35:31;0.70;;;0.40;;
66127;SDS011;52925;52.436;-1.952;2024-02-21T17:36:53;2.90;;;0.70;;
66127;SDS011;52925;52.436;-1.952;2024-02-21T17:38:13;3.67;;;0.73;;
66127;SDS011;52925;52.436;-1.952;2024-02-21T17:39:34;2.33;;;0.60;;
66127;SDS011;52925;52.436;-1.952;2024-02-21T17:40:54;3.13;;;0.70;;
66127;SDS011;52925;52.436;-1.952;2024-02-21T17:42:16;2.47;;;0.50;;
66127;SDS011;52925;52.436;-1.952;2024-02-21T17:43:37;4.40;;;0.60;;
66127;SDS011;52925;52.436;-1.952;2024-02-21T17:44:58;1.70;;;0.60;;
66127;SDS011;52925;52.436;-1.952;2024-02-21T17:46:18;4.67;;;0.70;;
66127;SDS011;52925;52.436;-1.952;2024-02-21T17:47:39;1.90;;;0.60;;
66127;SDS011;52925;52.436;-1.952;2024-02-21T17:48:59;2.30;;;0.70;;
66127;SDS011;52925;52.436;-1.952;2024-02-21T17:50:20;3.30;;;0.70;;
66127;SDS011;52925;52.436;-1.952;2024-02-21T17:51:40;2.37;;;0.60;;
66127;SDS011;52925;52.436;-1.952;2024-02-21T17:53:01;2.90;;;0.77;;
66127;SDS011;52925;52.436;-1.952;2024-02-21T17:54:21;3.57;;;0.77;;
66127;SDS011;52925;52.436;-1.952;2024-02-21T17:55:42;2.73;;;0.73;;
66127;SDS011;52925;52.436;-1.952;2024-02-21T17:57:02;1.60;;;0.57;;
66127;SDS011;52925;52.436;-1.952;2024-02-21T17:58:24;3.47;;;0.63;;
66127;SDS011;52925;52.436;-1.952;2024-02-21T17:59:45;4.23;;;0.70;;
66127;SDS011;52925;52.436;-1.952;2024-02-21T18:01:06;1.93;;;0.60;;
66127;SDS011;52925;52.436;-1.952;2024-02-21T18:02:28;3.03;;;0.97;;
66127;SDS011;52925;52.436;-1.952;2024-02-21T18:03:48;2.33;;;0.70;;
66127;SDS011;52925;52.436;-1.952;2024-02-21T18:05:10;2.73;;;0.60;;
66127;SDS011;52925;52.436;-1.952;2024-02-21T18:06:30;2.60;;;0.80;;
66127;SDS011;52925;52.436;-1.952;2024-02-21T18:07:52;3.60;;;1.00;;
66127;SDS011;52925;52.436;-1.952;2024-02-21T18:09:12;3.60;;;0.87;;
66127;SDS011;52925;52.436;-1.952;2024-02-21T18:10:33;3.97;;;1.13;;
66127;SDS011;52925;52.436;-1.952;2024-02-21T18:11:56;3.20;;;0.80;;
66127;SDS011;52925;52.436;-1.952;2024-02-21T18:13:17;3.03;;;0.67;;
66127;SDS011;52925;52.436;-1.952;2024-02-21T18:14:39;2.80;;;0.70;;
66127;SDS011;52925;52.436;-1.952;2024-02-21T18:16:03;2.83;;;1.10;;
66127;SDS011;52925;52.436;-1.952;2024-02-21T18:17:25;4.00;;;0.77;;
66127;SDS011;52925;52.436;-1.952;2024-02-21T18:18:45;4.13;;;1.00;;
66127;SDS011;52925;52.436;-1.952;2024-02-21T18:20:06;6.00;;;0.90;;
66127;SDS011;52925;52.436;-1.952;2024-02-21T18:21:27;4.13;;;0.93;;
66127;SDS011;52925;52.436;-1.952;2024-02-21T18:22:49;2.03;;;0.73;;
66127;SDS011;52925;52.436;-1.952;2024-02-21T18:24:10;4.33;;;0.90;;
66127;SDS011;52925;52.436;-1.952;2024-02-21T18:25:32;3.17;;;0.90;;
66127;SDS011;52925;52.436;-1.952;2024-02-21T18:26:51;4.30;;;1.00;;
66127;SDS011;52925;52.436;-1.952;2024-02-21T18:28:13;3.60;;;0.73;;
66127;SDS011;52925;52.436;-1.952;2024-02-21T18:29:33;4.57;;;0.80;;
66127;SDS011;52925;52.436;-1.952;2024-02-21T18:30:56;5.13;;;1.17;;
66127;SDS011;52925;52.436;-1.952;2024-02-21T18:32:18;5.93;;;1.10;;
66127;SDS011;52925;52.436;-1.952;2024-02-21T18:33:38;5.40;;;1.10;;
66127;SDS011;52925;52.436;-1.952;2024-02-21T18:35:04;4.73;;;0.90;;
66127;SDS011;52925;52.436;-1.952;2024-02-21T18:36:26;4.00;;;1.00;;
66127;SDS011;52925;52.436;-1.952;2024-02-21T18:37:46;3.07;;;0.90;;
66127;SDS011;52925;52.436;-1.952;2024-02-21T18:39:07;3.07;;;0.60;;
66127;SDS011;52925;52.436;-1.952;2024-02-21T18:40:27;4.27;;;0.93;;
66127;SDS011;52925;52.436;-1.952;2024-02-21T18:41:48;5.23;;;1.27;;
66127;SDS011;52925;52.436;-1.952;2024-02-21T18:43:08;4.10;;;0.90;;
66127;SDS011;52925;52.436;-1.952;2024-02-21T18:44:29;4.47;;;1.17;;
66127;SDS011;52925;52.436;-1.952;2024-02-21T18:45:49;3.83;;;0.80;;
66127;SDS011;52925;52.436;-1.952;2024-02-21T18:47:10;4.33;;;0.83;;
66127;SDS011;52925;52.436;-1.952;2024-02-21T18:48:32;2.93;;;0.80;;
66127;SDS011;52925;52.436;-1.952;2024-02-21T18:49:53;3.73;;;0.90;;
66127;SDS011;52925;52.436;-1.952;2024-02-21T18:51:13;3.53;;;0.90;;
66127;SDS011;52925;52.436;-1.952;2024-02-21T18:52:34;4.50;;;0.90;;
66127;SDS011;52925;52.436;-1.952;2024-02-21T18:53:54;4.27;;;0.90;;
66127;SDS011;52925;52.436;-1.952;2024-02-21T18:55:15;3.20;;;0.90;;
66127;SDS011;52925;52.436;-1.952;2024-02-21T18:56:35;3.37;;;0.93;;
66127;SDS011;52925;52.436;-1.952;2024-02-21T18:57:56;4.30;;;1.00;;
66127;SDS011;52925;52.436;-1.952;2024-02-21T18:59:16;4.97;;;1.00;;
66127;SDS011;52925;52.436;-1.952;2024-02-21T19:00:37;6.23;;;1.03;;
66127;SDS011;52925;52.436;-1.952;2024-02-21T19:01:57;2.70;;;0.90;;
66127;SDS011;52925;52.436;-1.952;2024-02-21T19:03:18;4.33;;;0.87;;
66127;SDS011;52925;52.436;-1.952;2024-02-21T19:04:39;4.07;;;0.90;;
66127;SDS011;52925;52.436;-1.952;2024-02-21T19:06:00;3.10;;;0.93;;
66127;SDS011;52925;52.436;-1.952;2024-02-21T19:07:21;5.47;;;1.03;;
66127;SDS011;52925;52.436;-1.952;2024-02-21T19:08:42;6.63;;;1.07;;
66127;SDS011;52925;52.436;-1.952;2024-02-21T19:10:02;3.47;;;1.00;;
66127;SDS011;52925;52.436;-1.952;2024-02-21T19:11:24;6.07;;;1.20;;
66127;SDS011;52925;52.436;-1.952;2024-02-21T19:12:44;4.10;;;0.90;;
66127;SDS011;52925;52.436;-1.952;2024-02-21T19:14:05;5.60;;;0.93;;
66127;SDS011;52925;52.436;-1.952;2024-02-21T19:15:25;5.07;;;1.17;;
66127;SDS011;52925;52.436;-1.952;2024-02-21T19:16:46;5.83;;;1.50;;
66127;SDS011;52925;52.436;-1.952;2024-02-21T19:18:06;4.53;;;1.03;;
66127;SDS011;52925;52.436;-1.952;2024-02-21T19:19:27;5.80;;;1.33;;
66127;SDS011;52925;52.436;-1.952;2024-02-21T19:20:48;5.20;;;0.90;;
66127;SDS011;52925;52.436;-1.952;2024-02-21T19:22:10;4.73;;;1.10;;
66127;SDS011;52925;52.436;-1.952;2024-02-21T19:23:30;6.00;;;1.50;;
66127;SDS011;52925;52.436;-1.952;2024-02-21T19:24:51;6.30;;;1.40;;
66127;SDS011;52925;52.436;-1.952;2024-02-21T19:26:11;5.27;;;1.17;;
66127;SDS011;52925;52.436;-1.952;2024-02-21T19:27:31;4.20;;;1.17;;
66127;SDS011;52925;52.436;-1.952;2024-02-21T19:28:51;5.60;;;1.23;;
66127;SDS011;52925;52.436;-1.952;2024-02-21T19:30:12;5.03;;;1.13;;
66127;SDS011;52925;52.436;-1.952;2024-02-21T19:31:33;3.63;;;1.10;;
66127;SDS011;52925;52.436;-1.952;2024-02-21T19:32:54;3.80;;;1.07;;
66127;SDS011;52925;52.436;-1.952;2024-02-21T19:34:14;4.63;;;1.10;;
66127;SDS011;52925;52.436;-1.952;2024-02-21T19:35:35;4.43;;;1.37;;
66127;SDS011;52925;52.436;-1.952;2024-02-21T19:36:57;5.63;;;1.63;;
66127;SDS011;52925;52.436;-1.952;2024-02-21T19:38:18;3.93;;;1.13;;
66127;SDS011;52925;52.436;-1.952;2024-02-21T19:39:38;4.83;;;1.30;;
66127;SDS011;52925;52.436;-1.952;2024-02-21T19:40:58;7.73;;;1.33;;
66127;SDS011;52925;52.436;-1.952;2024-02-21T19:42:18;6.20;;;1.90;;
66127;SDS011;52925;52.436;-1.952;2024-02-21T19:43:40;5.07;;;1.40;;
66127;SDS011;52925;52.436;-1.952;2024-02-21T19:45:02;6.60;;;1.30;;
66127;SDS011;52925;52.436;-1.952;2024-02-21T19:46:26;6.17;;;1.40;;
66127;SDS011;52925;52.436;-1.952;2024-02-21T19:47:45;6.70;;;1.40;;
66127;SDS011;52925;52.436;-1.952;2024-02-21T19:49:06;5.60;;;1.43;;
66127;SDS011;52925;52.436;-1.952;2024-02-21T19:50:26;3.73;;;1.00;;
66127;SDS011;52925;52.436;-1.952;2024-02-21T19:51:51;6.13;;;1.37;;
66127;SDS011;52925;52.436;-1.952;2024-02-21T19:53:12;5.63;;;1.13;;
66127;SDS011;52925;52.436;-1.952;2024-02-21T19:54:33;5.47;;;1.40;;
66127;SDS011;52925;52.436;-1.952;2024-02-21T19:55:52;6.57;;;1.63;;
66127;SDS011;52925;52.436;-1.952;2024-02-21T19:57:13;6.20;;;1.47;;
66127;SDS011;52925;52.436;-1.952;2024-02-21T19:58:33;7.00;;;1.20;;
66127;SDS011;52925;52.436;-1.952;2024-02-21T19:59:54;7.87;;;1.70;;
66127;SDS011;52925;52.436;-1.952;2024-02-21T20:01:15;7.70;;;1.70;;
66127;SDS011;52925;52.436;-1.952;2024-02-21T20:02:36;5.30;;;1.50;;
66127;SDS011;52925;52.436;-1.952;2024-02-21T20:03:56;6.27;;;1.50;;
66127;SDS011;52925;52.436;-1.952;2024-02-21T20:05:17;12.57;;;1.90;;
66127;SDS011;52925;52.436;-1.952;2024-02-21T20:06:37;6.67;;;1.60;;
66127;SDS011;52925;52.436;-1.952;2024-02-21T20:07:59;7.43;;;1.40;;
66127;SDS011;52925;52.436;-1.952;2024-02-21T20:09:21;5.87;;;1.50;;
66127;SDS011;52925;52.436;-1.952;2024-02-21T20:10:42;7.57;;;1.60;;
66127;SDS011;52925;52.436;-1.952;2024-02-21T20:12:01;10.57;;;1.50;;
66127;SDS011;52925;52.436;-1.952;2024-02-21T20:13:23;6.80;;;1.40;;
66127;SDS011;52925;52.436;-1.952;2024-02-21T20:14:42;8.20;;;2.27;;
66127;SDS011;52925;52.436;-1.952;2024-02-21T20:16:04;5.90;;;1.50;;
66127;SDS011;52925;52.436;-1.952;2024-02-21T20:17:24;8.23;;;1.77;;
66127;SDS011;52925;52.436;-1.952;2024-02-21T20:18:45;10.07;;;1.90;;
66127;SDS011;52925;52.436;-1.952;2024-02-21T20:20:05;10.13;;;2.23;;
66127;SDS011;52925;52.436;-1.952;2024-02-21T20:21:27;7.63;;;1.50;;
66127;SDS011;52925;52.436;-1.952;2024-02-21T20:22:47;9.50;;;1.80;;
66127;SDS011;52925;52.436;-1.952;2024-02-21T20:24:09;7.07;;;1.37;;
66127;SDS011;52925;52.436;-1.952;2024-02-21T20:25:30;6.67;;;1.93;;
66127;SDS011;52925;52.436;-1.952;2024-02-21T20:26:51;11.57;;;2.17;;
66127;SDS011;52925;52.436;-1.952;2024-02-21T20:28:11;7.53;;;1.73;;
66127;SDS011;52925;52.436;-1.952;2024-02-21T20:29:33;5.03;;;1.33;;
66127;SDS011;52925;52.436;-1.952;2024-02-21T20:30:52;8.33;;;1.63;;
66127;SDS011;52925;52.436;-1.952;2024-02-21T20:32:13;8.60;;;1.93;;
66127;SDS011;52925;52.436;-1.952;2024-02-21T20:33:33;9.10;;;2.30;;
66127;SDS011;52925;52.436;-1.952;2024-02-21T20:34:54;10.87;;;2.20;;
66127;SDS011;52925;52.436;-1.952;2024-02-21T20:36:14;7.10;;;1.80;;
66127;SDS011;52925;52.436;-1.952;2024-02-21T20:37:34;8.30;;;2.23;;
66127;SDS011;52925;52.436;-1.952;2024-02-21T20:38:54;11.60;;;1.60;;
66127;SDS011;52925;52.436;-1.952;2024-02-21T20:40:15;6.00;;;1.33;;
66127;SDS011;52925;52.436;-1.952;2024-02-21T20:41:38;7.50;;;1.60;;
66127;SDS011;52925;52.436;-1.952;2024-02-21T20:42:59;10.27;;;2.13;;
66127;SDS011;52925;52.436;-1.952;2024-02-21T20:44:18;9.97;;;1.67;;
66127;SDS011;52925;52.436;-1.952;2024-02-21T20:45:39;9.60;;;1.80;;
66127;SDS011;52925;52.436;-1.952;2024-02-21T20:46:59;10.63;;;1.97;;
66127;SDS011;52925;52.436;-1.952;2024-02-21T20:48:22;8.27;;;1.83;;
66127;SDS011;52925;52.436;-1.952;2024-02-21T20:49:43;9.87;;;1.60;;
66127;SDS011;52925;52.436;-1.952;2024-02-21T20:51:02;9.20;;;1.90;;
66127;SDS011;52925;52.436;-1.952;2024-02-21T20:52:24;8.33;;;1.67;;
66127;SDS011;52925;52.436;-1.952;2024-02-21T20:53:44;9.07;;;1.97;;
66127;SDS011;52925;52.436;-1.952;2024-02-21T20:55:05;12.00;;;2.47;;
66127;SDS011;52925;52.436;-1.952;2024-02-21T20:56:25;7.33;;;1.90;;
66127;SDS011;52925;52.436;-1.952;2024-02-21T20:57:48;11.40;;;1.97;;
66127;SDS011;52925;52.436;-1.952;2024-02-21T20:59:07;8.50;;;1.83;;
66127;SDS011;52925;52.436;-1.952;2024-02-21T21:00:28;9.43;;;1.80;;
66127;SDS011;52925;52.436;-1.952;2024-02-21T21:01:48;10.33;;;2.03;;
66127;SDS011;52925;52.436;-1.952;2024-02-21T21:03:08;11.30;;;2.03;;
66127;SDS011;52925;52.436;-1.952;2024-02-21T21:04:29;8.53;;;1.53;;
66127;SDS011;52925;52.436;-1.952;2024-02-21T21:05:50;7.40;;;1.90;;
66127;SDS011;52925;52.436;-1.952;2024-02-21T21:07:10;9.60;;;1.60;;
66127;SDS011;52925;52.436;-1.952;2024-02-21T21:08:30;11.67;;;1.70;;
66127;SDS011;52925;52.436;-1.952;2024-02-21T21:09:50;8.27;;;2.13;;
66127;SDS011;52925;52.436;-1.952;2024-02-21T21:11:13;9.47;;;1.80;;
66127;SDS011;52925;52.436;-1.952;2024-02-21T21:12:33;9.17;;;1.70;;
66127;SDS011;52925;52.436;-1.952;2024-02-21T21:13:55;10.10;;;1.87;;
66127;SDS011;52925;52.436;-1.952;2024-02-21T21:15:15;10.10;;;1.80;;
66127;SDS011;52925;52.436;-1.952;2024-02-21T21:16:36;12.33;;;2.03;;
66127;SDS011;52925;52.436;-1.952;2024-02-21T21:17:55;8.83;;;1.60;;
66127;SDS011;52925;52.436;-1.952;2024-02-21T21:19:16;10.67;;;2.50;;
66127;SDS011;52925;52.436;-1.952;2024-02-21T21:20:36;14.17;;;2.27;;
66127;SDS011;52925;52.436;-1.952;2024-02-21T21:21:57;9.53;;;1.80;;
66127;SDS011;52925;52.436;-1.952;2024-02-21T21:23:19;13.97;;;2.30;;
66127;SDS011;52925;52.436;-1.952;2024-02-21T21:24:39;10.77;;;2.03;;
66127;SDS011;52925;52.436;-1.952;2024-02-21T21:25:59;6.00;;;1.63;;
66127;SDS011;52925;52.436;-1.952;2024-02-21T21:27:19;10.17;;;1.60;;
66127;SDS011;52925;52.436;-1.952;2024-02-21T21:28:39;9.00;;;1.63;;
66127;SDS011;52925;52.436;-1.952;2024-02-21T21:30:01;8.60;;;2.37;;
66127;SDS011;52925;52.436;-1.952;2024-02-21T21:31:23;9.43;;;2.20;;
66127;SDS011;52925;52.436;-1.952;2024-02-21T21:32:44;12.73;;;2.47;;
66127;SDS011;52925;52.436;-1.952;2024-02-21T21:34:03;11.87;;;2.17;;
66127;SDS011;52925;52.436;-1.952;2024-02-21T21:35:24;11.17;;;2.30;;
66127;SDS011;52925;52.436;-1.952;2024-02-21T21:36:45;15.60;;;2.40;;
66127;SDS011;52925;52.436;-1.952;2024-02-21T21:38:06;13.13;;;2.33;;
66127;SDS011;52925;52.436;-1.952;2024-02-21T21:39:26;12.70;;;1.97;;
66127;SDS011;52925;52.436;-1.952;2024-02-21T21:40:48;8.40;;;1.50;;
66127;SDS011;52925;52.436;-1.952;2024-02-21T21:42:07;11.70;;;1.83;;
66127;SDS011;52925;52.436;-1.952;2024-02-21T21:43:30;11.00;;;2.40;;
66127;SDS011;52925;52.436;-1.952;2024-02-21T21:44:50;11.90;;;2.00;;
66127;SDS011;52925;52.436;-1.952;2024-02-21T21:46:12;10.90;;;2.60;;
66127;SDS011;52925;52.436;-1.952;2024-02-21T21:47:33;12.10;;;2.00;;
66127;SDS011;52925;52.436;-1.952;2024-02-21T21:48:54;8.20;;;2.13;;
66127;SDS011;52925;52.436;-1.952;2024-02-21T21:50:14;10.40;;;2.20;;
66127;SDS011;52925;52.436;-1.952;2024-02-21T21:51:35;12.10;;;2.10;;
66127;SDS011;52925;52.436;-1.952;2024-02-21T21:52:54;9.77;;;2.10;;
66127;SDS011;52925;52.436;-1.952;2024-02-21T21:54:15;8.83;;;1.80;;
66127;SDS011;52925;52.436;-1.952;2024-02-21T21:55:35;13.63;;;2.40;;
66127;SDS011;52925;52.436;-1.952;2024-02-21T21:56:56;12.43;;;2.07;;
66127;SDS011;52925;52.436;-1.952;2024-02-21T21:58:16;11.10;;;2.23;;
66127;SDS011;52925;52.436;-1.952;2024-02-21T21:59:37;13.60;;;2.03;;
66127;SDS011;52925;52.436;-1.952;2024-02-21T22:00:57;9.43;;;2.27;;
66127;SDS011;52925;52.436;-1.952;2024-02-21T22:02:19;11.43;;;2.53;;
66127;SDS011;52925;52.436;-1.952;2024-02-21T22:03:44;11.57;;;2.07;;
66127;SDS011;52925;52.436;-1.952;2024-02-21T22:05:05;9.23;;;2.20;;
66127;SDS011;52925;52.436;-1.952;2024-02-21T22:06:25;11.23;;;2.07;;
66127;SDS011;52925;52.436;-1.952;2024-02-21T22:07:46;10.17;;;2.07;;
66127;SDS011;52925;52.436;-1.952;2024-02-21T22:09:07;9.50;;;1.83;;
66127;SDS011;52925;52.436;-1.952;2024-02-21T22:10:28;10.53;;;2.23;;
66127;SDS011;52925;52.436;-1.952;2024-02-21T22:11:47;12.77;;;2.03;;
66127;SDS011;52925;52.436;-1.952;2024-02-21T22:13:08;9.03;;;1.60;;
66127;SDS011;52925;52.436;-1.952;2024-02-21T22:14:28;11.13;;;1.93;;
66127;SDS011;52925;52.436;-1.952;2024-02-21T22:15:49;11.43;;;2.37;;
66127;SDS011;52925;52.436;-1.952;2024-02-21T22:17:09;11.37;;;2.47;;
66127;SDS011;52925;52.436;-1.952;2024-02-21T22:18:31;13.43;;;2.50;;
66127;SDS011;52925;52.436;-1.952;2024-02-21T22:19:51;12.30;;;2.20;;
66127;SDS011;52925;52.436;-1.952;2024-02-21T22:21:12;11.27;;;2.33;;
66127;SDS011;52925;52.436;-1.952;2024-02-21T22:22:32;11.63;;;2.23;;
66127;SDS011;52925;52.436;-1.952;2024-02-21T22:23:53;9.57;;;2.13;;
66127;SDS011;52925;52.436;-1.952;2024-02-21T22:25:12;9.90;;;2.03;;
66127;SDS011;52925;52.436;-1.952;2024-02-21T22:26:33;11.10;;;1.93;;
66127;SDS011;52925;52.436;-1.952;2024-02-21T22:27:54;11.57;;;1.70;;
66127;SDS011;52925;52.436;-1.952;2024-02-21T22:29:15;7.77;;;1.53;;
66127;SDS011;52925;52.436;-1.952;2024-02-21T22:30:35;10.83;;;2.13;;
66127;SDS011;52925;52.436;-1.952;2024-02-21T22:31:56;11.57;;;2.27;;
66127;SDS011;52925;52.436;-1.952;2024-02-21T22:33:15;9.70;;;2.23;;
66127;SDS011;52925;52.436;-1.952;2024-02-21T22:34:37;14.00;;;2.63;;
66127;SDS011;52925;52.436;-1.952;2024-02-21T22:35:57;8.40;;;1.73;;
66127;SDS011;52925;52.436;-1.952;2024-02-21T22:37:18;10.50;;;2.43;;
66127;SDS011;52925;52.436;-1.952;2024-02-21T22:38:38;10.03;;;2.23;;
66127;SDS011;52925;52.436;-1.952;2024-02-21T22:40:00;12.33;;;2.20;;
66127;SDS011;52925;52.436;-1.952;2024-02-21T22:41:19;12.73;;;2.40;;
66127;SDS011;52925;52.436;-1.952;2024-02-21T22:42:41;9.37;;;2.03;;
66127;SDS011;52925;52.436;-1.952;2024-02-21T22:44:01;12.77;;;2.60;;
66127;SDS011;52925;52.436;-1.952;2024-02-21T22:45:23;9.67;;;2.07;;